createdAt,value
2022-08-17T00:12:45.805Z,6.68
2022-08-17T00:19:25.289Z,6.38
2022-08-17T00:22:31.733Z,6.63
2022-08-17T00:24:40.419Z,6.38
2022-08-17T00:27:07.521Z,6.97
2022-08-17T00:29:33.947Z,5.70
2022-08-17T00:33:22.800Z,6.28
2022-08-17T00:34:48.765Z,7.20
2022-08-17T00:37:15.471Z,6.35
2022-08-17T00:39:41.885Z,6.45
2022-08-17T00:42:17.136Z,6.68
2022-08-17T00:44:43.512Z,6.68
2022-08-17T00:47:09.922Z,6.35
2022-08-17T00:49:36.352Z,6.25
2022-08-17T00:52:10.788Z,6.30
2022-08-17T00:54:42.000Z,5.85
2022-08-17T00:57:46.752Z,6.80
2022-08-17T01:00:26.816Z,6.53
2022-08-17T01:03:00.306Z,6.03
2022-08-17T01:05:31.189Z,6.15
2022-08-17T01:08:00.259Z,6.40
2022-08-17T01:10:58.417Z,6.22
2022-08-17T01:13:27.661Z,6.32
2022-08-17T01:16:22.825Z,7.13
2022-08-17T01:18:52.068Z,6.43
2022-08-17T01:21:48.820Z,6.22
2022-08-17T01:24:15.990Z,6.00
2022-08-17T01:26:43.922Z,6.35
2022-08-17T01:29:11.670Z,6.95
2022-08-17T01:31:45.455Z,6.88
2022-08-17T01:34:14.251Z,6.10
2022-08-17T01:36:44.631Z,6.82
2022-08-17T01:39:22.730Z,6.60
2022-08-17T01:41:51.701Z,6.47
2022-08-17T01:44:18.111Z,6.40
2022-08-17T01:46:44.540Z,6.60
2022-08-17T01:49:12.038Z,6.47
2022-08-17T01:51:39.403Z,6.47
2022-08-17T01:54:13.665Z,6.10
2022-08-17T01:56:43.393Z,5.93
2022-08-17T01:59:15.016Z,6.78
2022-08-17T02:01:41.872Z,6.00
2022-08-17T02:04:08.487Z,6.50
2022-08-17T02:06:52.360Z,5.65
2022-08-17T02:09:23.995Z,5.60
2022-08-17T02:11:54.045Z,5.53
2022-08-17T02:14:20.768Z,5.68
2022-08-17T02:16:47.167Z,6.70
2022-08-17T02:19:15.976Z,5.97
2022-08-17T02:21:45.628Z,6.03
2022-08-17T02:24:17.621Z,7.00
2022-08-17T02:27:04.432Z,5.43
2022-08-17T02:29:30.923Z,6.35
2022-08-17T02:31:58.513Z,6.50
2022-08-17T02:34:25.739Z,6.68
2022-08-17T02:36:53.370Z,6.47
2022-08-17T02:39:20.189Z,6.30
2022-08-17T02:41:46.687Z,6.93
2022-08-17T02:44:13.513Z,6.45
2022-08-17T02:47:00.417Z,6.30
2022-08-17T02:49:26.827Z,6.57
2022-08-17T02:51:53.264Z,6.50
2022-08-17T02:54:40.852Z,6.25
2022-08-17T02:57:06.185Z,6.28
2022-08-17T02:59:32.800Z,7.00
2022-08-17T03:01:59.269Z,6.65
2022-08-17T03:04:25.819Z,6.00
2022-08-17T03:06:52.344Z,6.28
2022-08-17T03:09:18.796Z,6.60
2022-08-17T03:11:45.309Z,6.75
2022-08-17T03:14:12.435Z,6.38
2022-08-17T03:16:38.910Z,5.70
2022-08-17T03:19:05.734Z,6.90
2022-08-17T03:21:32.218Z,6.85
2022-08-17T03:23:58.673Z,6.15
2022-08-17T03:26:25.107Z,6.60
2022-08-17T03:31:22.507Z,6.63
2022-08-17T03:33:48.928Z,6.55
2022-08-17T03:36:15.498Z,6.32
2022-08-17T03:38:41.911Z,6.55
2022-08-17T03:41:09.326Z,7.25
2022-08-17T03:43:35.806Z,7.43
2022-08-17T03:46:34.698Z,6.70
2022-08-17T03:49:25.191Z,7.15
2022-08-17T03:52:11.038Z,6.50
2022-08-17T03:54:56.375Z,6.57
2022-08-17T03:57:23.850Z,6.38
2022-08-17T03:59:51.735Z,6.78
2022-08-17T04:02:30.580Z,6.60
2022-08-17T04:04:57.684Z,6.25
2022-08-17T04:07:27.387Z,6.45
2022-08-17T04:09:53.942Z,6.85
2022-08-17T04:12:22.338Z,7.45
2022-08-17T04:14:52.568Z,6.30
2022-08-17T04:17:27.391Z,7.03
2022-08-17T04:19:55.050Z,6.38
2022-08-17T04:22:32.508Z,7.00
2022-08-17T04:25:18.683Z,7.30
2022-08-17T04:27:45.171Z,8.52
2022-08-17T04:30:12.304Z,7.13
2022-08-17T04:33:05.746Z,7.85
2022-08-17T04:35:45.690Z,8.13
2022-08-17T04:38:15.169Z,7.57
2022-08-17T04:41:00.997Z,7.75
2022-08-17T04:43:28.428Z,8.35
2022-08-17T04:46:00.947Z,8.55
2022-08-17T04:48:36.159Z,8.13
2022-08-17T04:51:06.036Z,8.77
2022-08-17T04:53:32.556Z,8.75
2022-08-17T04:55:59.082Z,8.60
2022-08-17T04:58:25.856Z,8.40
2022-08-17T05:00:52.344Z,8.50
2022-08-17T05:03:18.837Z,9.18
2022-08-17T05:05:49.530Z,8.55
2022-08-17T05:08:19.177Z,8.30
2022-08-17T05:10:46.888Z,8.55
2022-08-17T05:13:19.753Z,8.23
2022-08-17T05:15:48.134Z,7.82
2022-08-17T05:18:16.022Z,8.77
2022-08-17T05:20:43.408Z,7.88
2022-08-17T05:23:13.403Z,7.53
2022-08-17T05:25:47.748Z,8.73
2022-08-17T05:28:15.251Z,8.48
2022-08-17T05:30:43.988Z,8.05
2022-08-17T05:33:14.761Z,7.18
2022-08-17T05:35:44.430Z,9.07
2022-08-17T05:38:10.908Z,8.43
2022-08-17T05:40:38.294Z,8.45
2022-08-17T05:43:06.131Z,8.27
2022-08-17T05:45:55.703Z,8.27
2022-08-17T05:48:20.382Z,8.25
2022-08-17T05:50:55.603Z,8.20
2022-08-17T05:53:43.921Z,8.55
2022-08-17T05:56:30.235Z,8.48
2022-08-17T05:59:08.741Z,8.88
2022-08-17T06:01:47.873Z,8.05
2022-08-17T06:04:54.788Z,8.80
2022-08-17T06:07:40.698Z,7.57
2022-08-17T06:10:41.552Z,8.65
2022-08-17T06:13:26.113Z,10.38
2022-08-17T06:16:02.998Z,9.52
2022-08-17T06:18:43.722Z,11.20
2022-08-17T06:21:13.265Z,9.55
2022-08-17T06:23:46.170Z,11.10
2022-08-17T06:26:17.417Z,10.95
2022-08-17T06:28:50.582Z,10.35
2022-08-17T06:31:29.113Z,10.05
2022-08-17T06:33:57.922Z,9.65
2022-08-17T06:36:36.120Z,9.80
2022-08-17T06:39:32.204Z,10.48
2022-08-17T06:42:58.807Z,8.43
2022-08-17T06:45:17.485Z,9.70
2022-08-17T06:48:27.860Z,8.13
2022-08-17T06:51:03.675Z,8.73
2022-08-17T06:53:38.803Z,7.32
2022-08-17T06:56:09.248Z,8.00
2022-08-17T06:58:38.809Z,7.57
2022-08-17T07:01:11.226Z,7.50
2022-08-17T07:06:20.923Z,6.93
2022-08-17T07:09:06.077Z,7.95
2022-08-17T07:11:50.320Z,7.78
2022-08-17T07:14:52.780Z,8.93
2022-08-17T07:17:21.984Z,7.20
2022-08-17T07:20:12.868Z,8.02
2022-08-17T07:23:00.438Z,7.32
2022-08-17T07:25:28.006Z,8.30
2022-08-17T07:27:59.803Z,8.20
2022-08-17T07:30:30.563Z,7.32
2022-08-17T07:33:20.607Z,7.43
2022-08-17T07:35:48.353Z,7.70
2022-08-17T07:38:30.287Z,7.93
2022-08-17T07:41:04.852Z,6.75
2022-08-17T07:43:40.893Z,7.82
2022-08-17T07:46:30.475Z,7.97
2022-08-17T07:49:16.797Z,7.45
2022-08-17T07:51:43.208Z,8.50
2022-08-17T07:54:15.724Z,7.03
2022-08-17T07:56:50.886Z,8.00
2022-08-17T07:59:24.192Z,7.60
2022-08-17T08:01:57.992Z,7.13
2022-08-17T08:04:59.532Z,8.10
2022-08-17T08:07:31.820Z,7.38
2022-08-17T08:10:15.073Z,7.35
2022-08-17T08:12:47.678Z,6.70
2022-08-17T08:15:33.205Z,6.85
2022-08-17T08:18:02.896Z,10.52
2022-08-17T08:20:53.435Z,7.60
2022-08-17T08:23:39.503Z,7.90
2022-08-17T08:26:26.316Z,8.45
2022-08-17T08:29:08.424Z,7.13
2022-08-17T08:32:11.314Z,7.65
2022-08-17T08:35:01.128Z,8.00
2022-08-17T08:37:45.359Z,8.77
2022-08-17T08:40:17.754Z,9.07
2022-08-17T08:42:50.226Z,9.60
2022-08-17T08:45:27.015Z,8.57
2022-08-17T08:47:53.541Z,9.05
2022-08-17T08:50:38.778Z,9.45
2022-08-17T08:53:48.589Z,9.93
2022-08-17T08:56:24.971Z,9.10
2022-08-17T08:58:59.356Z,7.95
2022-08-17T09:01:47.660Z,7.78
2022-08-17T09:05:02.679Z,8.23
2022-08-17T09:07:59.029Z,6.72
2022-08-17T09:10:30.391Z,7.03
2022-08-17T09:13:14.663Z,7.97
2022-08-17T09:15:48.419Z,8.32
2022-08-17T09:19:00.093Z,9.02
2022-08-17T09:21:28.607Z,6.60
2022-08-17T09:24:13.904Z,6.78
2022-08-17T09:27:10.759Z,6.57
2022-08-17T09:29:43.519Z,7.00
2022-08-17T09:32:19.226Z,7.32
2022-08-17T09:34:52.612Z,6.55
2022-08-17T09:37:19.188Z,6.57
2022-08-17T09:39:55.441Z,7.45
2022-08-17T09:42:42.571Z,6.22
2022-08-17T09:45:24.232Z,6.43
2022-08-17T09:48:14.663Z,6.68
2022-08-17T09:51:05.646Z,6.10
2022-08-17T09:53:36.142Z,6.88
2022-08-17T09:56:24.145Z,6.75
2022-08-17T09:59:00.402Z,6.97
2022-08-17T10:01:43.112Z,6.50
2022-08-17T10:04:17.753Z,6.40
2022-08-17T10:07:01.861Z,6.78
2022-08-17T10:09:55.655Z,6.82
2022-08-17T10:12:36.606Z,7.10
2022-08-17T10:15:30.662Z,6.53
2022-08-17T10:18:33.104Z,5.75
2022-08-17T10:21:26.551Z,6.60
2022-08-17T10:24:21.613Z,6.95
2022-08-17T10:26:56.053Z,6.20
2022-08-17T10:29:47.277Z,6.10
2022-08-17T10:32:33.492Z,6.43
2022-08-17T10:35:33.857Z,6.47
2022-08-17T10:38:19.526Z,6.80
2022-08-17T10:41:18.674Z,6.00
2022-08-17T10:44:40.457Z,6.20
2022-08-17T10:47:07.096Z,7.15
2022-08-17T10:49:36.680Z,6.03
2022-08-17T10:52:24.845Z,6.47
2022-08-17T10:54:51.463Z,7.32
2022-08-17T10:57:31.580Z,6.53
2022-08-17T11:00:24.316Z,7.60
2022-08-17T11:02:55.843Z,7.80
2022-08-17T11:05:47.278Z,9.25
2022-08-17T11:08:51.327Z,8.18
2022-08-17T11:11:36.518Z,8.63
2022-08-17T11:14:24.840Z,7.43
2022-08-17T11:17:04.926Z,7.90
2022-08-17T11:19:58.703Z,7.50
2022-08-17T11:22:37.191Z,7.78
2022-08-17T11:25:19.609Z,8.10
2022-08-17T11:27:53.556Z,6.85
2022-08-17T11:30:53.978Z,7.55
2022-08-17T11:33:29.139Z,6.63
2022-08-17T11:36:04.060Z,7.03
2022-08-17T11:38:46.134Z,6.07
2022-08-17T11:41:28.640Z,7.30
2022-08-17T11:44:10.454Z,6.80
2022-08-17T11:47:28.309Z,5.68
2022-08-17T11:50:54.672Z,4.88
2022-08-17T11:53:37.132Z,5.15
2022-08-17T11:56:30.155Z,5.22
2022-08-17T11:58:56.614Z,5.30
2022-08-17T12:01:22.958Z,4.25
2022-08-17T12:03:55.938Z,5.28
2022-08-17T12:06:43.828Z,4.57
2022-08-17T12:09:21.287Z,4.65
2022-08-17T12:12:14.821Z,4.43
2022-08-17T12:15:09.435Z,4.68
2022-08-17T12:17:50.273Z,5.38
2022-08-17T12:20:41.802Z,4.97
2022-08-17T12:23:29.790Z,4.55
2022-08-17T12:26:15.108Z,5.18
2022-08-17T12:28:46.652Z,5.32
2022-08-17T12:31:19.482Z,5.00
2022-08-17T12:33:47.436Z,4.90
2022-08-17T12:36:16.657Z,5.55
2022-08-17T12:39:14.272Z,5.22
2022-08-17T12:41:46.856Z,5.22
2022-08-17T12:44:18.126Z,5.25
2022-08-17T12:46:48.205Z,5.53
2022-08-17T12:49:31.327Z,5.63
2022-08-17T12:52:16.851Z,5.75
2022-08-17T12:54:52.476Z,6.00
2022-08-17T12:57:38.949Z,5.60
2022-08-17T13:00:08.734Z,6.28
2022-08-17T13:02:49.037Z,6.10
2022-08-17T13:05:20.910Z,6.10
2022-08-17T13:07:47.654Z,6.78
2022-08-17T13:10:21.459Z,6.10
2022-08-17T13:12:50.942Z,6.07
2022-08-17T13:15:34.984Z,6.38
2022-08-17T13:18:39.392Z,7.03
2022-08-17T13:21:12.795Z,6.53
2022-08-17T13:23:39.605Z,6.07
2022-08-17T13:26:16.191Z,6.35
2022-08-17T13:28:51.065Z,6.55
2022-08-17T13:31:49.809Z,6.65
2022-08-17T13:34:26.732Z,5.78
2022-08-17T13:37:34.642Z,6.22
2022-08-17T13:40:10.545Z,6.20
2022-08-17T13:42:51.557Z,5.55
2022-08-17T13:45:35.711Z,5.63
2022-08-17T13:48:30.008Z,5.60
2022-08-17T13:50:56.404Z,6.00
2022-08-17T13:53:22.759Z,6.18
2022-08-17T13:56:37.950Z,6.72
2022-08-17T13:59:11.323Z,6.25
2022-08-17T14:01:53.158Z,5.93
2022-08-17T14:04:31.504Z,6.43
2022-08-17T14:07:13.221Z,5.88
2022-08-17T14:09:55.184Z,6.50
2022-08-17T14:12:25.056Z,6.88
2022-08-17T14:14:52.876Z,5.77
2022-08-17T14:17:19.498Z,7.30
2022-08-17T14:19:45.905Z,6.50
2022-08-17T14:22:23.604Z,6.35
2022-08-17T14:24:51.291Z,6.80
2022-08-17T14:27:20.440Z,5.35
2022-08-17T14:29:47.913Z,4.95
2022-08-17T14:32:20.217Z,5.53
2022-08-17T14:34:49.471Z,5.20
2022-08-17T14:37:17.555Z,5.55
2022-08-17T14:39:44.159Z,5.50
2022-08-17T14:42:11.433Z,5.10
2022-08-17T14:44:39.304Z,5.43
2022-08-17T14:47:11.811Z,5.45
2022-08-17T14:49:38.207Z,5.13
2022-08-17T14:52:04.792Z,5.63
2022-08-17T14:54:34.214Z,5.50
2022-08-17T14:57:04.663Z,6.60
2022-08-17T14:59:55.171Z,5.50
2022-08-17T15:02:29.381Z,5.15
2022-08-17T15:05:01.993Z,5.70
2022-08-17T15:07:30.915Z,5.22
2022-08-17T15:10:00.392Z,5.70
2022-08-17T15:12:32.009Z,5.55
2022-08-17T15:15:00.559Z,5.68
2022-08-17T15:17:27.072Z,4.95
2022-08-17T15:20:15.685Z,6.25
2022-08-17T15:22:43.529Z,5.93
2022-08-17T15:25:11.056Z,5.57
2022-08-17T15:27:37.622Z,5.47
2022-08-17T15:30:09.342Z,5.60
2022-08-17T15:32:38.670Z,5.90
2022-08-17T15:35:07.404Z,5.65
2022-08-17T15:37:33.804Z,5.10
2022-08-17T15:40:03.646Z,5.35
2022-08-17T15:42:30.145Z,6.67
2022-08-17T15:44:56.913Z,5.60
2022-08-17T15:47:24.298Z,5.20
2022-08-17T15:49:50.789Z,6.20
2022-08-17T15:52:24.071Z,6.05
2022-08-17T15:55:00.497Z,5.55
2022-08-17T15:57:27.462Z,5.72
2022-08-17T15:59:58.902Z,5.38
2022-08-17T16:03:44.411Z,5.47
2022-08-17T16:05:22.004Z,5.45
2022-08-17T16:07:52.074Z,5.60
2022-08-17T16:10:19.492Z,5.35
2022-08-17T16:12:47.714Z,5.07
2022-08-17T16:15:14.563Z,5.38
2022-08-17T16:17:43.840Z,5.60
2022-08-17T16:20:19.950Z,4.80
2022-08-17T16:22:48.934Z,5.40
2022-08-17T16:25:18.841Z,5.68
2022-08-17T16:27:48.131Z,5.27
2022-08-17T16:30:17.685Z,5.13
2022-08-17T16:32:46.312Z,5.73
2022-08-17T16:35:17.320Z,5.90
2022-08-17T16:37:45.670Z,6.20
2022-08-17T16:40:13.857Z,5.88
2022-08-17T16:42:40.879Z,6.03
2022-08-17T16:45:11.668Z,5.38
2022-08-17T16:50:06.448Z,6.10
2022-08-17T16:52:33.510Z,5.72
2022-08-17T16:55:02.282Z,5.45
2022-08-17T16:57:29.688Z,5.65
2022-08-17T16:59:56.901Z,6.03
2022-08-17T17:02:27.630Z,5.63
2022-08-17T17:07:45.701Z,5.80
2022-08-17T17:10:24.027Z,5.60
2022-08-17T17:13:02.808Z,5.70
2022-08-17T17:15:45.610Z,5.50
2022-08-17T17:18:14.664Z,5.88
2022-08-17T17:20:55.796Z,6.40
2022-08-17T17:23:37.523Z,5.70
2022-08-17T17:26:03.962Z,4.82
2022-08-17T17:28:43.872Z,5.50
2022-08-17T17:31:23.731Z,5.40
2022-08-17T17:33:56.168Z,5.38
2022-08-17T17:36:30.074Z,5.68
2022-08-17T17:39:24.902Z,6.03
2022-08-17T17:41:53.956Z,5.13
2022-08-17T17:44:28.602Z,5.60
2022-08-17T17:46:59.288Z,5.78
2022-08-17T17:52:19.266Z,5.78
2022-08-17T17:55:04.584Z,6.07
2022-08-17T17:58:00.550Z,5.60
2022-08-17T18:00:39.007Z,5.32
2022-08-17T18:03:24.409Z,5.38
2022-08-17T18:06:13.607Z,5.25
2022-08-17T18:08:53.151Z,5.13
2022-08-17T18:11:39.448Z,4.80
2022-08-17T18:14:37.306Z,5.22
2022-08-17T18:17:04.131Z,5.88
2022-08-17T18:19:31.792Z,5.10
2022-08-17T18:22:14.229Z,6.20
2022-08-17T18:24:44.058Z,5.68
2022-08-17T18:27:29.266Z,6.22
2022-08-17T18:29:57.523Z,8.05
2022-08-17T18:32:37.676Z,8.07
2022-08-17T18:35:16.240Z,8.65
2022-08-17T18:37:44.921Z,9.48
2022-08-17T18:40:17.680Z,10.02
2022-08-17T18:42:45.795Z,10.40
2022-08-17T18:45:13.180Z,11.30
2022-08-17T18:47:54.751Z,11.90
2022-08-17T18:50:24.635Z,13.98
2022-08-17T18:52:51.432Z,12.37
2022-08-17T18:55:23.605Z,12.52
2022-08-17T18:57:53.222Z,12.80
2022-08-17T19:00:31.946Z,12.90
2022-08-17T19:03:01.808Z,13.20
2022-08-17T19:05:35.047Z,12.93
2022-08-17T19:08:20.980Z,12.85
2022-08-17T19:10:51.222Z,13.27
2022-08-17T19:13:23.264Z,14.10
2022-08-17T19:16:10.086Z,13.15
2022-08-17T19:18:52.008Z,13.52
2022-08-17T19:21:23.866Z,13.93
2022-08-17T19:23:54.512Z,13.93
2022-08-17T19:29:57.811Z,14.02
2022-08-17T19:32:31.946Z,13.88
2022-08-17T19:34:58.432Z,14.45
2022-08-17T19:37:36.898Z,13.98
2022-08-17T19:40:09.321Z,13.93
2022-08-17T19:42:47.588Z,14.93
2022-08-17T19:45:34.663Z,14.35
2022-08-17T19:48:18.447Z,13.90
2022-08-17T19:50:56.291Z,14.85
2022-08-17T19:54:06.262Z,15.75
2022-08-17T19:57:22.446Z,15.80
2022-08-17T20:00:23.857Z,15.55
2022-08-17T20:03:16.163Z,15.13
2022-08-17T20:06:11.532Z,15.05
2022-08-17T20:08:41.342Z,14.52
2022-08-17T20:11:16.874Z,15.85
2022-08-17T20:13:49.586Z,15.82
2022-08-17T20:16:18.304Z,15.32
2022-08-17T20:19:03.540Z,17.08
2022-08-17T20:21:41.687Z,15.90
2022-08-17T20:24:19.832Z,13.95
2022-08-17T20:27:05.180Z,14.52
2022-08-17T20:30:00.442Z,15.27
2022-08-17T20:32:30.515Z,14.93
2022-08-17T20:35:19.457Z,14.47
2022-08-17T20:38:36.141Z,15.32
2022-08-17T20:41:03.028Z,14.40
2022-08-17T20:43:32.750Z,14.82
2022-08-17T20:46:17.715Z,15.40
2022-08-17T20:48:48.468Z,15.65
2022-08-17T20:51:22.656Z,14.25
2022-08-17T20:53:49.078Z,14.63
2022-08-17T20:56:43.385Z,14.40
2022-08-17T20:59:30.598Z,15.20
2022-08-17T21:02:12.422Z,14.63
2022-08-17T21:04:52.618Z,14.88
2022-08-17T21:07:43.580Z,14.75
2022-08-17T21:10:18.015Z,14.98
2022-08-17T21:12:50.212Z,15.68
2022-08-17T21:15:36.295Z,15.07
2022-08-17T21:18:11.835Z,14.93
2022-08-17T21:21:12.989Z,16.50
2022-08-17T21:24:11.869Z,15.70
2022-08-17T21:27:16.278Z,15.32
2022-08-17T21:30:01.448Z,15.05
2022-08-17T21:32:40.442Z,15.35
2022-08-17T21:35:12.082Z,15.88
2022-08-17T21:37:53.115Z,15.20
2022-08-17T21:40:26.257Z,16.58
2022-08-17T21:42:58.142Z,15.52
2022-08-17T21:45:31.681Z,16.58
2022-08-17T21:48:16.962Z,14.48
2022-08-17T21:50:55.744Z,14.45
2022-08-17T21:53:32.227Z,15.02
2022-08-17T21:55:59.734Z,16.65
2022-08-17T21:58:33.826Z,16.38
2022-08-17T22:01:23.703Z,16.90
2022-08-17T22:04:12.016Z,16.00
2022-08-17T22:06:52.354Z,16.45
2022-08-17T22:09:49.939Z,16.27
2022-08-17T22:12:22.672Z,15.98
2022-08-17T22:14:55.240Z,16.40
2022-08-17T22:17:46.019Z,16.25
2022-08-17T22:20:17.227Z,15.75
2022-08-17T22:23:08.443Z,15.98
2022-08-17T22:25:37.942Z,15.02
2022-08-17T22:28:07.499Z,16.85
2022-08-17T22:30:38.799Z,16.52
2022-08-17T22:33:44.008Z,15.95
2022-08-17T22:36:24.985Z,16.58
2022-08-17T22:38:57.698Z,15.05
2022-08-17T22:41:31.915Z,16.33
2022-08-17T22:44:07.287Z,15.93
2022-08-17T22:46:39.267Z,17.27
2022-08-17T22:49:06.244Z,16.40
2022-08-17T22:51:33.046Z,16.05
2022-08-17T22:54:20.600Z,15.32
2022-08-17T22:57:12.010Z,16.23
2022-08-17T22:59:49.544Z,16.15
2022-08-17T23:02:24.901Z,16.75
2022-08-17T23:05:15.724Z,16.10
2022-08-17T23:07:45.148Z,16.83
2022-08-17T23:10:13.212Z,15.30
2022-08-17T23:12:39.974Z,16.20
2022-08-17T23:15:18.921Z,15.07
2022-08-17T23:17:46.285Z,16.17
2022-08-17T23:20:15.433Z,14.85
2022-08-17T23:22:52.092Z,15.80
2022-08-17T23:25:29.317Z,15.32
2022-08-17T23:27:58.343Z,14.73
2022-08-17T23:30:25.537Z,16.60
2022-08-17T23:32:54.275Z,17.00
2022-08-17T23:35:39.917Z,16.90
2022-08-17T23:38:11.571Z,16.17
2022-08-17T23:40:39.263Z,17.05
2022-08-17T23:43:24.723Z,17.45
2022-08-17T23:45:57.297Z,16.63
2022-08-17T23:48:27.794Z,16.38
2022-08-17T23:51:05.683Z,15.77
2022-08-17T23:53:34.647Z,16.88
2022-08-17T23:56:09.091Z,17.05
2022-08-17T23:58:38.459Z,16.77
